Latest Coastal Weather Observations for Edithburgh

IDS60701

Issued at 7:45 am CDT Tuesday 21 October 2014 (issued every 10 minutes, with the page automatically refreshed every 10 minutes)

About coastal observations | Map of coastal stations | Coastal observations for SA | Marine services | Other Formats
Station Details ID: 022046 Name: EDITHBURGH Lat: -35.11 Lon: 137.74 Height: 6.0 m
Data from the previous 72 hours. | See also: Recent months at Edithburgh
Date/Time
CDT
Temp

°C
Wind Pressure Rain
since 9am
mm
Weather Cloud Vis
km
Sea
Height
m
Swell
Dir
 
Speed
knots
Gust
knots
hPa Trend Height
m
Period
s
Dir
21/07:30am 20.3 ENE 11 13 1018.7 - 0.0 - - - - - - -
21/07:00am 19.6 ENE 11 14 1018.6 - 0.0 - - - - - - -
21/06:30am 18.8 ENE 9 12 1018.4 - 0.0 - - - - - - -
21/06:00am 19.4 NE 9 12 1018.2 - 0.0 - - - - - - -
21/05:30am 19.4 NE 8 11 1018.0 - 0.0 - - - - - - -
21/05:00am 19.0 NNE 6 9 1018.0 - 0.0 - - - - - - -
21/04:30am 18.6 NNE 5 7 1018.1 - 0.0 - - - - - - -
21/04:00am 17.9 NNE 4 6 1018.1 - 0.0 - - - - - - -
21/03:30am 18.1 NNE 4 5 1018.1 - 0.0 - - - - - - -
21/03:00am 16.6 NNE 3 4 1018.4 - 0.0 - - - - - - -
21/02:30am 17.3 NE 3 4 1018.6 - 0.0 - - - - - - -
21/02:00am 16.2 NE 3 3 1018.9 - 0.0 - - - - - - -
21/01:30am 17.7 NNE 4 5 1019.4 - 0.0 - - - - - - -
21/01:00am 18.1 ENE 5 8 1019.6 - 0.0 - - - - - - -
21/12:30am 18.6 E 8 11 1019.8 - 0.0 - - - - - - -
21/12:00am 18.9 E 8 10 1019.9 - 0.0 - - - - - - -
 
Date/Time
CDT
Temp

°C
Wind Pressure Rain
since 9am
mm
Weather Cloud Vis
km
Sea
Height
m
Swell
Dir
 
Speed
knots
Gust
knots
hPa Trend Height
m
Period
s
Dir
20/11:30pm 18.8 ESE 8 11 1020.1 - 0.0 - - - - - - -
20/11:00pm 18.8 ESE 9 11 1020.5 - 0.0 - - - - - - -
20/10:30pm 19.2 ESE 10 12 1020.7 - 0.0 - - - - - - -
20/10:00pm 19.4 ESE 10 14 1020.9 - 0.0 - - - - - - -
20/09:30pm 19.1 ESE 11 15 1020.9 - 0.0 - - - - - - -
20/09:00pm 18.7 ESE 10 13 1020.9 - 0.0 - - - - - - -
20/08:30pm 18.3 SE 8 11 1020.7 - 0.0 - - - - - - -
20/08:00pm 17.8 SE 9 13 1020.4 - 0.0 - - - - - - -
20/07:30pm 18.1 SE 10 14 1020.2 - 0.0 - - - - - - -
20/07:00pm 18.7 SE 12 15 1019.7 - 0.0 - - - - - - -
20/06:30pm 19.6 SE 12 16 1019.7 - 0.0 - - - - - - -
20/06:00pm 19.8 SSE 9 12 1019.9 - 0.0 - - - - - - -
20/05:30pm 19.7 S 10 13 1020.0 - 0.0 - - - - - - -
20/05:00pm 19.6 S 10 14 1020.2 - 0.0 - - - - - - -
20/04:30pm 20.1 S 11 15 1020.4 - 0.0 - - - - - - -
20/04:00pm 20.6 S 11 15 1020.7 - 0.0 - - - - - - -
20/03:30pm 19.7 S 12 15 1021.0 - 0.0 - - - - - - -
20/03:00pm 20.6 SSE 10 13 1021.3 - 0.0 - - - - - - -
20/02:30pm 20.7 SSE 11 14 1021.9 - 0.0 - - - - - - -
20/02:00pm 20.6 SE 11 15 1022.4 - 0.0 - - - - - - -
20/01:30pm 20.2 SE 11 14 1022.7 - 0.0 - - - - - - -
20/01:00pm 20.2 SE 11 13 1022.9 - 0.0 - - - - - - -
20/12:30pm 19.7 SE 10 13 1023.3 - 0.0 - - - - - - -
20/12:00pm 19.8 ESE 11 13 1023.6 - 0.0 - - - - - - -
20/11:30am 18.8 ESE 12 16 1023.8 - 0.0 - - - - - - -
20/11:00am 18.5 ESE 13 17 1024.1 - 0.0 - - - - - - -
20/10:30am 17.8 ESE 14 18 1024.3 - 0.0 - - - - - - -
20/10:00am 17.2 ESE 14 19 1024.6 - 0.0 - - - - - - -
20/09:30am 16.9 ESE 14 19 1024.4 - 0.0 - - - - - - -
20/09:00am 15.8 ESE 15 19 1024.5 - 0.0 - - - - - - -
20/08:30am 15.5 ESE 15 18 1024.6 - 0.0 - - - - - - -
20/08:00am 15.2 ESE 15 19 1024.5 - 0.0 - - - - - - -
20/07:30am 14.7 ESE 14 18 1024.0 - 0.0 - - - - - - -
20/07:00am 14.2 ESE 15 21 1023.8 - 0.0 - - - - - - -
20/06:30am 14.2 ESE 17 22 1023.6 - 0.0 - - - - - - -
20/06:00am 14.3 ESE 13 17 1023.6 - 0.0 - - - - - - -
20/05:30am 14.3 ESE 12 15 1023.3 - 0.0 - - - - - - -
20/05:00am 14.3 ESE 11 14 1023.2 - 0.0 - - - - - - -
20/04:30am 14.4 ESE 11 15 1023.1 - 0.0 - - - - - - -
20/04:00am 14.5 ESE 12 17 1022.8 - 0.0 - - - - - - -
20/03:30am 14.7 ESE 11 15 1022.9 - 0.0 - - - - - - -
20/03:00am 15.0 ESE 11 17 1023.2 - 0.0 - - - - - - -
20/02:30am 14.7 SE 13 17 1023.2 - 0.0 - - - - - - -
20/02:00am 15.0 ESE 13 18 1023.3 - 0.0 - - - - - - -
20/01:30am 14.9 SE 14 20 1023.5 - 0.0 - - - - - - -
20/01:00am 14.9 ESE 15 20 1023.6 - 0.0 - - - - - - -
20/12:30am 15.0 SE 17 23 1023.8 - 0.0 - - - - - - -
20/12:00am 15.1 SE 14 20 1023.9 - 0.0 - - - - - - -
 
Date/Time
CDT
Temp

°C
Wind Pressure Rain
since 9am
mm
Weather Cloud Vis
km
Sea
Height
m
Swell
Dir
 
Speed
knots
Gust
knots
hPa Trend Height
m
Period
s
Dir
19/11:30pm 15.2 SE 16 20 1023.8 - 0.0 - - - - - - -
19/11:00pm 15.2 SE 17 22 1023.6 - 0.0 - - - - - - -
19/10:30pm 15.4 SE 18 22 1023.6 - 0.0 - - - - - - -
19/10:00pm 15.3 SE 16 21 1023.6 - 0.0 - - - - - - -
19/09:30pm 15.2 SSE 12 15 1023.6 - 0.0 - - - - - - -
19/09:00pm 15.5 SSE 12 16 1023.5 - 0.0 - - - - - - -
19/08:30pm 15.4 SSE 11 15 1023.2 - 0.0 - - - - - - -
19/08:00pm 15.5 SE 15 19 1023.2 - 0.0 - - - - - - -
19/07:30pm 15.8 SE 15 19 1022.9 - 0.0 - - - - - - -
19/07:00pm 15.8 SSE 14 19 1022.1 - 0.0 - - - - - - -
19/06:30pm 16.2 SSE 19 25 1022.1 - 0.0 - - - - - - -
19/06:00pm 16.7 SSE 21 31 1021.9 - 0.0 - - - - - - -
19/05:30pm 17.0 SSE 23 33 1021.5 - 0.0 - - - - - - -
19/05:22pm 17.5 SSE 22 33 1021.5 - 0.0 - - - - - - -
19/05:00pm 17.6 SSE 22 29 1021.2 - 0.0 - - - - - - -
19/04:30pm 17.6 SSE 19 26 1021.2 - 0.0 - - - - - - -
19/04:00pm 18.8 SSE 19 25 1021.1 - 0.0 - - - - - - -
19/03:30pm 19.4 S 18 23 1020.9 - 0.0 - - - - - - -
19/03:00pm 20.6 S 14 19 1020.9 - 0.0 - - - - - - -
19/02:30pm 20.0 SSE 15 20 1020.7 - 0.0 - - - - - - -
19/02:00pm 20.1 S 14 19 1020.8 - 0.0 - - - - - - -
19/01:30pm 21.0 S 14 18 1020.6 - 0.0 - - - - - - -
19/01:15pm 21.4 S 12 16 1020.7 - 0.0 - - - - - - -
19/01:00pm 26.4 SSW 7 10 1020.4 - 0.0 - - - - - - -
19/12:30pm 24.9 SSW 7 9 1020.5 - 0.0 - - - - - - -
19/12:00pm 26.2 SSW 12 15 1020.6 - 0.0 - - - - - - -
19/11:52am 25.4 SSW 12 17 1020.4 - 0.0 - - - - - - -
19/11:30am 30.8 W 18 24 1020.2 - 0.0 - - - - - - -
19/11:00am 32.5 NW 18 22 1019.7 - 0.0 - - - - - - -
19/10:30am 32.0 NW 17 25 1019.6 - 0.0 - - - - - - -
19/10:00am 30.8 NNW 15 21 1019.4 - 0.0 - - - - - - -
19/09:30am 28.9 NNW 16 23 1019.3 - 0.0 - - - - - - -
19/09:00am 27.6 NNW 14 18 1019.1 - 0.0 - - - - - - -
19/08:30am 24.9 NNW 11 16 1019.1 - 0.0 - - - - - - -
19/08:00am 21.6 NNW 7 10 1019.0 - 0.0 - - - - - - -
19/07:30am 16.7 N 4 6 1018.7 - 0.0 - - - - - - -
19/07:00am 16.1 N 2 2 1018.3 - 0.0 - - - - - - -
19/06:30am 17.1 NNE 4 6 1017.5 - 0.0 - - - - - - -
19/06:00am 16.8 NNE 4 6 1017.2 - 0.0 - - - - - - -
19/05:30am 13.4 E 3 5 1017.0 - 0.0 - - - - - - -
19/05:00am 12.0 CALM 0 0 1016.8 - 0.0 - - - - - - -
19/04:30am 12.5 CALM 0 0 1016.9 - 0.0 - - - - - - -
19/04:00am 12.5 CALM 0 0 1017.1 - 0.0 - - - - - - -
19/03:30am 12.3 CALM 0 0 1017.1 - 0.0 - - - - - - -
19/03:00am 11.6 NNW 2 2 1017.5 - 0.0 - - - - - - -
19/02:30am 12.3 NNE 4 5 1017.5 - 0.0 - - - - - - -
19/02:00am 12.1 N 2 3 1017.9 - 0.0 - - - - - - -
19/01:30am 12.0 NE 2 3 1018.1 - 0.0 - - - - - - -
19/01:00am 12.4 CALM 0 0 1018.5 - 0.0 - - - - - - -
19/12:30am 12.4 CALM 0 0 1018.6 - 0.0 - - - - - - -
19/12:00am 12.7 NE 2 3 1018.7 - 0.0 - - - - - - -
 
Date/Time
CDT
Temp

°C
Wind Pressure Rain
since 9am
mm
Weather Cloud Vis
km
Sea
Height
m
Swell
Dir
 
Speed
knots
Gust
knots
hPa Trend Height
m
Period
s
Dir
18/11:30pm 14.5 SSE 2 2 1019.0 - 0.0 - - - - - - -
18/11:00pm 16.6 SSE 2 2 1019.2 - 0.0 - - - - - - -
18/10:30pm 16.7 S 4 5 1019.4 - 0.0 - - - - - - -
18/10:00pm 17.3 S 5 7 1019.5 - 0.0 - - - - - - -
18/09:30pm 18.5 SSE 4 4 1019.3 - 0.0 - - - - - - -
18/09:00pm 18.3 SE 4 5 1019.2 - 0.0 - - - - - - -
18/08:30pm 18.2 ESE 4 6 1019.0 - 0.0 - - - - - - -
18/08:00pm 18.0 SE 4 5 1018.9 - 0.0 - - - - - - -
18/07:30pm 19.6 S 6 7 1018.7 - 0.0 - - - - - - -
18/07:00pm 20.8 SSE 4 5 1018.3 - 0.0 - - - - - - -
18/06:30pm 22.2 SSE 5 8 1018.2 - 0.0 - - - - - - -
18/06:00pm 22.4 S 5 8 1018.0 - 0.0 - - - - - - -
18/05:51pm 22.4 SSE 6 7 1017.9 - 0.0 - - - - - - -
18/05:35pm 27.4 W 8 12 1017.8 - 0.0 - - - - - - -
18/05:30pm 32.5 NW 9 12 1017.5 - 0.0 - - - - - - -
18/05:00pm 31.8 NW 10 14 1017.3 - 0.0 - - - - - - -
18/04:30pm 33.2 NW 13 18 1017.2 - 0.0 - - - - - - -
18/04:00pm 32.4 NW 15 19 1017.3 - 0.0 - - - - - - -
18/03:30pm 32.8 NW 18 23 1017.6 - 0.0 - - - - - - -
18/03:00pm 32.6 NW 16 21 1018.0 - 0.0 - - - - - - -
18/02:30pm 32.0 NW 18 23 1018.3 - 0.0 - - - - - - -
18/02:00pm 31.9 NW 19 26 1018.7 - 0.0 - - - - - - -
18/01:30pm 32.3 NNW 19 25 1018.8 - 0.0 - - - - - - -
18/01:00pm 31.4 NNW 19 26 1018.8 - 0.0 - - - - - - -
18/12:30pm 32.6 NNW 18 24 1018.8 - 0.0 - - - - - - -
18/12:00pm 31.1 NNW 19 25 1018.9 - 0.0 - - - - - - -
18/11:30am 31.5 NNW 20 27 1019.1 - 0.0 - - - - - - -
18/11:00am 30.6 NNW 21 29 1019.5 - 0.0 - - - - - - -
18/10:30am 29.8 N 17 24 1019.8 - 0.0 - - - - - - -
18/10:22am 26.9 N 16 24 1019.8 - 0.0 - - - - - - -
18/10:00am 20.6 NE 8 12 1020.1 - 0.0 - - - - - - -
18/09:30am 20.3 NNE 6 9 1020.2 - 0.0 - - - - - - -
18/09:00am 20.2 NNE 8 12 1020.1 - 0.0 - - - - - - -
18/08:30am 19.4 NNE 7 11 1019.8 - 0.0 - - - - - - -
18/08:00am 18.5 NNE 8 11 1019.9 - 0.0 - - - - - - -

Other Formats:

Comma delimited format used in spreadsheet applications
http://www.bom.gov.au/fwo/IDS60701/IDS60701.94809.axf

JavaScript Object Notation format (JSON) in row-major order
http://www.bom.gov.au/fwo/IDS60701/IDS60701.94809.json